createdAt,value
2023-03-02T00:01:51.203Z,19.70
2023-03-02T00:04:21.833Z,22.20
2023-03-02T00:06:52.236Z,24.70
2023-03-02T00:09:20.318Z,22.40
2023-03-02T00:11:48.478Z,23.20
2023-03-02T00:14:16.550Z,24.10
2023-03-02T00:16:44.726Z,23.50
2023-03-02T00:19:12.800Z,27.40
2023-03-02T00:21:41.809Z,27.60
2023-03-02T00:24:10.159Z,26.40
2023-03-02T00:26:38.539Z,26.50
2023-03-02T00:29:06.812Z,27.50
2023-03-02T00:31:35.253Z,25.50
2023-03-02T00:34:03.770Z,25.20
2023-03-02T00:36:32.459Z,25.50
2023-03-02T00:39:00.638Z,31.00
2023-03-02T00:41:29.205Z,27.30
2023-03-02T00:43:58.001Z,24.90
2023-03-02T00:46:28.742Z,27.80
2023-03-02T00:48:57.102Z,24.40
2023-03-02T00:51:25.386Z,22.10
2023-03-02T00:53:53.553Z,24.10
2023-03-02T00:56:21.926Z,23.50
2023-03-02T00:58:50.612Z,24.50
2023-03-02T01:01:19.498Z,25.80
2023-03-02T01:03:50.746Z,26.40
2023-03-02T01:06:20.908Z,26.00
2023-03-02T01:08:49.352Z,26.60
2023-03-02T01:11:20.617Z,27.00
2023-03-02T01:13:50.411Z,27.50
2023-03-02T01:16:18.747Z,24.50
2023-03-02T01:18:47.157Z,25.20
2023-03-02T01:21:16.558Z,26.80
2023-03-02T01:23:44.738Z,26.30
2023-03-02T01:26:12.911Z,27.30
2023-03-02T01:28:41.074Z,27.20
2023-03-02T01:31:09.529Z,24.20
2023-03-02T01:33:37.730Z,26.40
2023-03-02T01:36:06.609Z,23.20
2023-03-02T01:38:34.843Z,24.90
2023-03-02T01:41:03.061Z,24.60
2023-03-02T01:43:31.234Z,23.00
2023-03-02T01:46:20.709Z,25.80
2023-03-02T01:49:04.138Z,34.90
2023-03-02T01:51:46.139Z,35.00
2023-03-02T01:54:23.160Z,37.50
2023-03-02T01:56:59.212Z,32.40
2023-03-02T01:59:28.567Z,30.50
2023-03-02T02:01:59.197Z,30.30
2023-03-02T02:04:29.414Z,27.90
2023-03-02T02:07:02.176Z,27.20
2023-03-02T02:09:33.840Z,29.60
2023-03-02T02:12:02.861Z,26.30
2023-03-02T02:14:31.015Z,27.30
2023-03-02T02:16:59.244Z,25.10
2023-03-02T02:19:49.882Z,25.90
2023-03-02T02:22:30.244Z,25.90
2023-03-02T02:25:02.102Z,29.30
2023-03-02T02:27:34.267Z,31.20
2023-03-02T02:30:04.773Z,29.30
2023-03-02T02:32:35.755Z,29.10
2023-03-02T02:35:22.974Z,31.40
2023-03-02T02:37:54.949Z,30.30
2023-03-02T02:40:41.004Z,28.70
2023-03-02T02:43:13.621Z,29.80
2023-03-02T02:45:42.131Z,30.30
2023-03-02T02:48:19.447Z,31.20
2023-03-02T02:50:47.708Z,31.40
2023-03-02T02:53:40.984Z,34.80
2023-03-02T02:56:10.998Z,39.20
2023-03-02T02:58:46.147Z,48.60
2023-03-02T03:01:15.897Z,54.60
2023-03-02T03:03:51.514Z,41.90
2023-03-02T03:06:25.897Z,36.20
2023-03-02T03:08:57.795Z,29.70
2023-03-02T03:11:33.051Z,25.30
2023-03-02T03:14:16.134Z,23.40
2023-03-02T03:16:47.085Z,27.60
2023-03-02T03:19:23.526Z,29.20
2023-03-02T03:21:54.456Z,29.80
2023-03-02T03:24:24.580Z,28.00
2023-03-02T03:26:54.492Z,24.80
2023-03-02T03:29:25.244Z,24.20
2023-03-02T03:31:56.192Z,25.20
2023-03-02T03:34:25.464Z,31.90
2023-03-02T03:36:54.038Z,27.90
2023-03-02T03:39:22.436Z,36.10
2023-03-02T03:41:50.950Z,58.60
2023-03-02T03:44:19.272Z,62.80
2023-03-02T03:46:47.445Z,48.90
2023-03-02T03:49:16.025Z,36.70
2023-03-02T03:51:44.713Z,39.40
2023-03-02T03:54:13.084Z,36.00
2023-03-02T03:56:45.249Z,30.50
2023-03-02T03:59:19.872Z,32.40
2023-03-02T04:01:55.035Z,34.80
2023-03-02T04:04:28.507Z,36.20
2023-03-02T04:06:57.097Z,37.80
2023-03-02T04:09:26.694Z,36.20
2023-03-02T04:11:56.093Z,38.70
2023-03-02T04:14:25.702Z,44.20
2023-03-02T04:16:55.102Z,47.50
2023-03-02T04:19:25.012Z,43.50
2023-03-02T04:21:58.582Z,38.90
2023-03-02T04:24:27.806Z,40.00
2023-03-02T04:26:58.232Z,38.20
2023-03-02T04:29:28.248Z,56.40
2023-03-02T04:31:57.010Z,38.20
2023-03-02T04:34:26.956Z,34.60
2023-03-02T04:36:55.950Z,34.80
2023-03-02T04:39:24.945Z,31.10
2023-03-02T04:41:54.142Z,29.10
2023-03-02T04:44:22.616Z,27.20
2023-03-02T04:46:51.447Z,26.80
2023-03-02T04:49:20.603Z,25.90
2023-03-02T04:51:50.108Z,28.80
2023-03-02T04:54:22.810Z,29.40
2023-03-02T04:56:51.889Z,29.60
2023-03-02T04:59:24.165Z,29.20
2023-03-02T05:01:54.720Z,29.80
2023-03-02T05:04:23.169Z,30.10
2023-03-02T05:06:51.529Z,29.70
2023-03-02T05:09:21.317Z,30.20
2023-03-02T05:11:49.408Z,33.10
2023-03-02T05:14:17.478Z,32.90
2023-03-02T05:16:45.655Z,31.90
2023-03-02T05:19:13.826Z,36.00
2023-03-02T05:21:42.100Z,35.90
2023-03-02T05:24:13.134Z,36.90
2023-03-02T05:26:41.923Z,36.60
2023-03-02T05:29:10.095Z,38.00
2023-03-02T05:31:43.553Z,34.30
2023-03-02T05:34:13.961Z,28.00
2023-03-02T05:36:42.702Z,24.90
2023-03-02T05:39:11.181Z,28.90
2023-03-02T05:41:39.454Z,28.10
2023-03-02T05:44:09.776Z,30.80
2023-03-02T05:46:38.542Z,28.40
2023-03-02T05:49:06.952Z,29.50
2023-03-02T05:51:35.129Z,29.50
2023-03-02T05:54:03.290Z,30.00
2023-03-02T05:56:32.005Z,29.70
2023-03-02T05:59:00.558Z,28.80
2023-03-02T06:01:28.823Z,31.90
2023-03-02T06:03:56.997Z,31.40
2023-03-02T06:06:25.171Z,32.80
2023-03-02T06:08:53.344Z,31.10
2023-03-02T06:11:21.515Z,30.90
2023-03-02T06:13:49.698Z,30.50
2023-03-02T06:16:17.916Z,27.60
2023-03-02T06:18:46.131Z,29.20
2023-03-02T06:21:14.609Z,33.10
2023-03-02T06:23:42.791Z,31.40
2023-03-02T06:26:12.014Z,33.70
2023-03-02T06:28:51.860Z,32.80
2023-03-02T06:31:22.188Z,33.30
2023-03-02T06:33:50.640Z,37.00
2023-03-02T06:36:18.989Z,37.70
2023-03-02T06:38:47.380Z,45.40
2023-03-02T06:41:16.178Z,36.40
2023-03-02T06:43:44.565Z,35.00
2023-03-02T06:46:12.889Z,39.90
2023-03-02T06:48:41.505Z,69.50
2023-03-02T06:51:09.779Z,75.80
2023-03-02T06:53:38.267Z,58.50
2023-03-02T06:56:07.401Z,43.80
2023-03-02T06:58:36.433Z,36.40
2023-03-02T07:01:04.881Z,36.10
2023-03-02T07:03:33.573Z,35.50
2023-03-02T07:06:02.501Z,35.70
2023-03-02T07:08:30.770Z,31.90
2023-03-02T07:10:58.975Z,32.70
2023-03-02T07:13:27.425Z,31.10
2023-03-02T07:15:55.601Z,31.20
2023-03-02T07:18:23.988Z,33.70
2023-03-02T07:20:52.435Z,35.50
2023-03-02T07:23:20.529Z,40.50
2023-03-02T07:25:48.689Z,55.10
2023-03-02T07:28:16.964Z,46.90
2023-03-02T07:30:45.176Z,39.00
2023-03-02T07:33:13.624Z,40.10
2023-03-02T07:35:41.746Z,39.50
2023-03-02T07:38:09.961Z,58.60
2023-03-02T07:40:44.531Z,62.90
2023-03-02T07:43:12.758Z,71.80
2023-03-02T07:45:41.033Z,78.00
2023-03-02T07:48:09.207Z,70.20
2023-03-02T07:50:37.589Z,63.80
2023-03-02T07:53:05.754Z,53.60
2023-03-02T07:55:33.933Z,42.00
2023-03-02T07:58:02.102Z,31.30
2023-03-02T08:00:30.281Z,29.20
2023-03-02T08:02:58.465Z,29.40
2023-03-02T08:05:26.822Z,28.00
2023-03-02T08:07:55.095Z,29.70
2023-03-02T08:10:23.281Z,29.80
2023-03-02T08:12:51.458Z,28.10
2023-03-02T08:15:19.615Z,29.50
2023-03-02T08:17:48.401Z,28.40
2023-03-02T08:20:16.575Z,31.20
2023-03-02T08:22:44.649Z,30.20
2023-03-02T08:25:12.925Z,30.20
2023-03-02T08:27:41.194Z,29.40
2023-03-02T08:30:10.888Z,27.70
2023-03-02T08:32:39.394Z,26.80
2023-03-02T08:35:08.594Z,26.40
2023-03-02T08:37:36.955Z,28.00
2023-03-02T08:40:05.951Z,31.10
2023-03-02T08:42:34.135Z,26.50
2023-03-02T08:45:02.411Z,26.40
2023-03-02T08:47:30.668Z,27.70
2023-03-02T08:49:58.945Z,26.90
2023-03-02T08:52:27.216Z,27.70
2023-03-02T08:54:55.454Z,26.00
2023-03-02T08:57:23.671Z,24.30
2023-03-02T08:59:52.956Z,25.00
2023-03-02T09:02:21.134Z,26.80
2023-03-02T09:04:49.383Z,24.10
2023-03-02T09:07:17.573Z,23.10
2023-03-02T09:09:46.066Z,22.80
2023-03-02T09:12:14.241Z,22.30
2023-03-02T09:14:42.408Z,20.30
2023-03-02T09:17:13.250Z,22.50
2023-03-02T09:19:44.505Z,22.80
2023-03-02T09:22:13.065Z,21.20
2023-03-02T09:24:41.233Z,21.00
2023-03-02T09:27:09.409Z,22.50
2023-03-02T09:29:37.580Z,21.90
2023-03-02T09:32:05.835Z,21.00
2023-03-02T09:34:34.237Z,21.50
2023-03-02T09:37:02.610Z,22.50
2023-03-02T09:39:30.884Z,21.40
2023-03-02T09:42:11.242Z,20.60
2023-03-02T09:44:57.641Z,18.20
2023-03-02T09:47:35.978Z,19.30
2023-03-02T09:50:27.469Z,21.50
2023-03-02T09:53:24.110Z,21.10
2023-03-02T09:55:55.353Z,22.30
2023-03-02T09:58:25.775Z,21.40
2023-03-02T10:00:53.949Z,21.50
2023-03-02T10:03:24.244Z,21.90
2023-03-02T10:05:57.302Z,21.20
2023-03-02T10:08:28.399Z,21.80
2023-03-02T10:11:12.852Z,21.70
2023-03-02T10:13:47.552Z,22.50
2023-03-02T10:16:34.897Z,20.50
2023-03-02T10:19:25.246Z,19.90
2023-03-02T10:22:03.106Z,21.10
2023-03-02T10:24:57.581Z,21.10
2023-03-02T10:27:50.970Z,22.70
2023-03-02T10:30:37.910Z,23.70
2023-03-02T10:33:14.297Z,23.20
2023-03-02T10:35:47.954Z,23.20
2023-03-02T10:38:18.661Z,22.10
2023-03-02T10:41:00.327Z,22.50
2023-03-02T10:43:37.620Z,21.00
2023-03-02T10:46:11.348Z,20.70
2023-03-02T10:48:55.550Z,20.80
2023-03-02T10:51:23.849Z,21.70
2023-03-02T10:54:07.077Z,22.20
2023-03-02T10:56:35.654Z,20.90
2023-03-02T10:59:29.843Z,24.20
2023-03-02T11:02:23.506Z,29.60
2023-03-02T11:05:00.546Z,32.30
2023-03-02T11:07:29.989Z,30.50
2023-03-02T11:10:18.847Z,34.60
2023-03-02T11:12:49.143Z,32.00
2023-03-02T11:17:46.854Z,34.00
2023-03-02T11:20:24.132Z,33.30
2023-03-02T11:22:59.860Z,37.00
2023-03-02T11:25:40.439Z,38.30
2023-03-02T11:28:17.366Z,36.20
2023-03-02T11:30:49.186Z,36.50
2023-03-02T11:33:28.867Z,40.40
2023-03-02T11:36:03.340Z,40.40
2023-03-02T11:38:46.973Z,48.60
2023-03-02T11:41:31.672Z,50.00
2023-03-02T11:44:18.239Z,47.60
2023-03-02T11:46:49.664Z,48.00
2023-03-02T11:49:24.295Z,65.10
2023-03-02T11:55:06.329Z,51.20
2023-03-02T11:57:39.571Z,55.40
2023-03-02T12:00:38.714Z,54.70
2023-03-02T12:03:06.897Z,63.20
2023-03-02T12:05:38.943Z,56.40
2023-03-02T12:08:19.340Z,59.30
2023-03-02T12:11:00.028Z,69.00
2023-03-02T12:13:33.691Z,62.70
2023-03-02T12:16:02.490Z,60.80
2023-03-02T12:18:42.526Z,63.20
2023-03-02T12:21:18.507Z,58.60
2023-03-02T12:23:49.712Z,60.70
2023-03-02T12:26:21.165Z,60.20
2023-03-02T12:29:09.931Z,60.60
2023-03-02T12:31:48.517Z,57.80
2023-03-02T12:34:35.264Z,57.60
2023-03-02T12:37:30.774Z,57.90
2023-03-02T12:40:26.092Z,54.60
2023-03-02T12:43:00.317Z,56.00
2023-03-02T12:45:50.904Z,57.10
2023-03-02T12:48:29.592Z,54.00
2023-03-02T12:51:01.850Z,54.10
2023-03-02T12:53:31.162Z,54.00
2023-03-02T12:55:59.570Z,53.50
2023-03-02T12:58:29.449Z,55.20
2023-03-02T13:01:02.552Z,50.30
2023-03-02T13:03:31.734Z,48.70
2023-03-02T13:06:15.783Z,49.10
2023-03-02T13:08:46.386Z,49.20
2023-03-02T13:11:21.830Z,50.70
2023-03-02T13:13:50.093Z,52.00
2023-03-02T13:16:33.866Z,52.40
2023-03-02T13:19:04.284Z,48.80
2023-03-02T13:24:31.554Z,44.90
2023-03-02T13:27:05.856Z,43.80
2023-03-02T13:29:34.571Z,44.80
2023-03-02T13:32:19.289Z,43.40
2023-03-02T13:34:59.259Z,42.50
2023-03-02T13:37:37.840Z,41.80
2023-03-02T13:40:40.023Z,41.00
2023-03-02T13:43:21.735Z,41.20
2023-03-02T13:46:05.242Z,38.70
2023-03-02T13:48:33.956Z,36.60
2023-03-02T13:51:18.941Z,39.10
2023-03-02T13:53:56.917Z,38.40
2023-03-02T13:56:38.238Z,37.30
2023-03-02T13:59:14.769Z,37.90
2023-03-02T14:01:44.297Z,36.80
2023-03-02T14:04:14.303Z,36.30
2023-03-02T14:06:42.560Z,34.30
2023-03-02T14:09:10.936Z,32.70
2023-03-02T14:11:41.553Z,32.10
2023-03-02T14:14:14.762Z,33.40
2023-03-02T14:16:43.131Z,31.50
2023-03-02T14:19:13.887Z,32.60
2023-03-02T14:21:43.556Z,30.80
2023-03-02T14:24:12.056Z,32.50
2023-03-02T14:26:45.183Z,30.70
2023-03-02T14:29:43.008Z,30.90
2023-03-02T14:32:13.359Z,32.30
2023-03-02T14:37:15.745Z,27.40
2023-03-02T14:39:47.154Z,27.20
2023-03-02T14:42:17.081Z,26.80
2023-03-02T14:44:48.736Z,28.40
2023-03-02T14:47:19.584Z,28.40
2023-03-02T14:49:49.486Z,28.10
2023-03-02T14:52:23.632Z,28.60
2023-03-02T14:54:58.040Z,27.50
2023-03-02T14:57:28.544Z,27.00
2023-03-02T15:00:00.063Z,30.60
2023-03-02T15:02:28.866Z,27.80
2023-03-02T15:04:57.856Z,28.50
2023-03-02T15:07:28.215Z,30.60
2023-03-02T15:09:58.312Z,31.80
2023-03-02T15:12:26.440Z,31.30
2023-03-02T15:14:54.666Z,30.70
2023-03-02T15:17:23.253Z,31.90
2023-03-02T15:19:51.616Z,30.90
2023-03-02T15:22:19.810Z,32.10
2023-03-02T15:24:47.959Z,33.00
2023-03-02T15:27:16.137Z,32.90
2023-03-02T15:29:46.154Z,30.60
2023-03-02T15:32:15.212Z,32.00
2023-03-02T15:34:44.129Z,30.10
2023-03-02T15:37:12.835Z,29.70
2023-03-02T15:39:41.617Z,29.90
2023-03-02T15:42:10.813Z,29.30
2023-03-02T15:47:08.367Z,28.80
2023-03-02T15:49:36.643Z,26.70
2023-03-02T15:52:05.029Z,25.40
2023-03-02T15:54:33.729Z,24.90
2023-03-02T15:57:01.875Z,23.50
2023-03-02T15:59:31.394Z,25.20
2023-03-02T16:01:59.894Z,25.10
2023-03-02T16:04:32.743Z,26.80
2023-03-02T16:07:01.221Z,28.20
2023-03-02T16:09:31.106Z,27.90
2023-03-02T16:11:59.311Z,29.60
2023-03-02T16:14:27.437Z,24.10
2023-03-02T16:16:55.703Z,24.40
2023-03-02T16:19:24.243Z,25.80
2023-03-02T16:21:52.409Z,27.00
2023-03-02T16:24:20.794Z,21.60
2023-03-02T16:26:51.130Z,28.80
2023-03-02T16:29:19.238Z,23.80
2023-03-02T16:31:47.983Z,23.20
2023-03-02T16:34:17.897Z,23.80
2023-03-02T16:36:46.053Z,29.00
2023-03-02T16:39:15.152Z,27.90
2023-03-02T16:41:44.142Z,23.90
2023-03-02T16:44:14.772Z,22.20
2023-03-02T16:46:43.964Z,26.00
2023-03-02T16:49:13.573Z,20.90
2023-03-02T16:51:42.982Z,22.90
2023-03-02T16:54:15.529Z,23.80
2023-03-02T16:56:45.579Z,25.20
2023-03-02T16:59:13.937Z,23.20
2023-03-02T17:01:42.296Z,23.00
2023-03-02T17:04:10.590Z,23.80
2023-03-02T17:06:40.161Z,25.00
2023-03-02T17:09:11.333Z,22.60
2023-03-02T17:11:40.633Z,21.60
2023-03-02T17:14:08.822Z,21.10
2023-03-02T17:16:36.987Z,22.10
2023-03-02T17:19:05.046Z,22.10
2023-03-02T17:21:33.322Z,26.10
2023-03-02T17:24:01.493Z,24.40
2023-03-02T17:26:29.973Z,25.20
2023-03-02T17:28:58.149Z,24.80
2023-03-02T17:31:26.461Z,25.00
2023-03-02T17:33:54.697Z,23.60
2023-03-02T17:36:22.831Z,22.50
2023-03-02T17:38:52.062Z,24.00
2023-03-02T17:41:20.337Z,23.60
2023-03-02T17:43:48.507Z,23.60
2023-03-02T17:46:23.295Z,24.90
2023-03-02T17:48:54.478Z,24.30
2023-03-02T17:51:23.676Z,24.10
2023-03-02T17:53:52.767Z,24.90
2023-03-02T17:56:24.309Z,25.60
2023-03-02T17:58:56.587Z,23.80
2023-03-02T18:01:25.478Z,25.50
2023-03-02T18:03:53.781Z,24.40
2023-03-02T18:06:22.240Z,24.70
2023-03-02T18:08:51.954Z,26.40
2023-03-02T18:11:22.758Z,25.50
2023-03-02T18:13:51.661Z,23.50
2023-03-02T18:16:19.789Z,24.00
2023-03-02T18:18:48.591Z,25.40
2023-03-02T18:21:18.209Z,27.00
2023-03-02T18:23:47.220Z,25.70
2023-03-02T18:26:15.599Z,27.60
2023-03-02T18:28:43.775Z,29.90
2023-03-02T18:31:14.721Z,27.10
2023-03-02T18:33:43.181Z,27.20
2023-03-02T18:36:11.662Z,28.00
2023-03-02T18:38:40.651Z,26.90
2023-03-02T18:41:10.153Z,25.90
2023-03-02T18:43:40.691Z,26.10
2023-03-02T18:48:41.431Z,25.60
2023-03-02T18:51:09.602Z,25.70
2023-03-02T18:53:38.288Z,26.20
2023-03-02T18:56:06.969Z,27.40
2023-03-02T18:58:35.552Z,29.00
2023-03-02T19:01:04.488Z,27.30
2023-03-02T19:03:35.287Z,25.20
2023-03-02T19:06:04.276Z,25.80
2023-03-02T19:08:32.647Z,27.20
2023-03-02T19:11:01.537Z,26.80
2023-03-02T19:13:29.712Z,25.30
2023-03-02T19:15:58.326Z,25.00
2023-03-02T19:18:26.569Z,25.80
2023-03-02T19:20:55.156Z,27.40
2023-03-02T19:23:24.042Z,25.90
2023-03-02T19:25:52.423Z,25.20
2023-03-02T19:28:21.884Z,28.40
2023-03-02T19:30:51.018Z,28.10
2023-03-02T19:33:19.398Z,29.80
2023-03-02T19:35:47.611Z,29.40
2023-03-02T19:38:15.839Z,25.90
2023-03-02T19:40:44.007Z,29.10
2023-03-02T19:43:12.381Z,27.70
2023-03-02T19:45:40.797Z,26.60
2023-03-02T19:48:13.855Z,26.60
2023-03-02T19:50:43.574Z,26.50
2023-03-02T19:53:14.163Z,26.70
2023-03-02T19:58:17.231Z,25.30
2023-03-02T20:00:46.325Z,26.50
2023-03-02T20:03:14.866Z,27.50
2023-03-02T20:05:43.236Z,27.60
2023-03-02T20:08:11.521Z,28.50
2023-03-02T20:10:42.714Z,29.70
2023-03-02T20:13:11.545Z,29.20
2023-03-02T20:15:45.346Z,29.00
2023-03-02T20:18:19.662Z,28.20
2023-03-02T20:20:48.839Z,26.30
2023-03-02T20:23:18.083Z,25.70
2023-03-02T20:25:48.343Z,28.00
2023-03-02T20:28:22.670Z,28.20
2023-03-02T20:30:54.725Z,29.40
2023-03-02T20:33:26.617Z,27.00
2023-03-02T20:35:55.338Z,28.60
2023-03-02T20:38:45.590Z,26.90
2023-03-02T20:41:14.990Z,32.00
2023-03-02T20:43:43.581Z,28.90
2023-03-02T20:46:30.376Z,28.10
2023-03-02T20:48:59.071Z,29.00
2023-03-02T20:51:27.647Z,29.80
2023-03-02T20:53:56.667Z,28.80
2023-03-02T20:56:25.020Z,29.80
2023-03-02T20:58:53.196Z,27.30
2023-03-02T21:01:23.899Z,26.30
2023-03-02T21:06:20.271Z,28.50
2023-03-02T21:08:49.156Z,27.10
2023-03-02T21:11:19.827Z,26.00
2023-03-02T21:13:48.790Z,28.00
2023-03-02T21:16:26.778Z,28.90
2023-03-02T21:18:56.485Z,30.60
2023-03-02T21:21:40.422Z,29.10
2023-03-02T21:24:11.845Z,27.70
2023-03-02T21:26:41.779Z,26.60
2023-03-02T21:29:12.325Z,28.00
2023-03-02T21:31:42.435Z,27.50
2023-03-02T21:34:14.025Z,29.20
2023-03-02T21:36:43.517Z,25.30
2023-03-02T21:39:12.904Z,27.50
2023-03-02T21:41:41.066Z,31.70
2023-03-02T21:44:09.565Z,29.60
2023-03-02T21:46:38.581Z,30.40
2023-03-02T21:49:07.225Z,29.60
2023-03-02T21:51:35.596Z,33.00
2023-03-02T21:54:03.877Z,31.40
2023-03-02T21:56:32.042Z,32.50
2023-03-02T21:59:00.350Z,33.10
2023-03-02T22:01:30.022Z,28.90
2023-03-02T22:03:59.505Z,27.90
2023-03-02T22:06:30.677Z,27.10
2023-03-02T22:08:59.357Z,26.60
2023-03-02T22:11:30.292Z,28.00
2023-03-02T22:14:01.536Z,27.50
2023-03-02T22:16:36.295Z,28.60
2023-03-02T22:19:20.104Z,26.40
2023-03-02T22:21:49.621Z,28.20
2023-03-02T22:24:30.074Z,28.40
2023-03-02T22:26:58.752Z,30.40
2023-03-02T22:29:33.649Z,52.80
2023-03-02T22:32:15.936Z,44.30
2023-03-02T22:34:45.803Z,32.30
2023-03-02T22:37:20.017Z,27.80
2023-03-02T22:39:50.042Z,26.20
2023-03-02T22:42:20.564Z,25.10
2023-03-02T22:47:39.226Z,22.30
2023-03-02T22:50:29.411Z,23.30
2023-03-02T22:52:58.713Z,21.30
2023-03-02T22:55:40.116Z,22.90
2023-03-02T22:58:28.846Z,24.10
2023-03-02T23:01:01.594Z,24.90
2023-03-02T23:03:38.891Z,24.90
2023-03-02T23:06:35.449Z,23.40
2023-03-02T23:09:05.594Z,23.70
2023-03-02T23:11:37.724Z,25.00
2023-03-02T23:14:28.848Z,22.90
2023-03-02T23:17:00.916Z,23.80
2023-03-02T23:19:30.925Z,24.50
2023-03-02T23:21:59.715Z,22.40
2023-03-02T23:24:27.982Z,23.10
2023-03-02T23:26:56.361Z,21.50
2023-03-02T23:29:24.431Z,20.00
2023-03-02T23:31:52.767Z,20.60
2023-03-02T23:34:21.084Z,20.40
2023-03-02T23:36:49.356Z,21.00
2023-03-02T23:39:17.844Z,19.50
2023-03-02T23:41:46.054Z,21.60
2023-03-02T23:44:14.385Z,21.60
2023-03-02T23:46:42.554Z,19.70
2023-03-02T23:49:10.826Z,20.10
2023-03-02T23:51:39.204Z,20.20
2023-03-02T23:54:07.579Z,19.40
2023-03-02T23:56:35.852Z,19.60
2023-03-02T23:59:04.137Z,19.50
